Carlotta, California
Current Conditions -  °F | °C
As of 6:15 PM on Monday 22 Dec 2014 (Local Time) from KFOT Reporting Station
Overcast Overcast  
Wind Chill: 55°   Ceiling: 200
Heat Index: 55°   Visibility: 0.75mi
Dew Point: 55°   Wind: 6mph
Humidity: 100%   Direction: 310°NW
Pressure: 30.32"   Gusts: NA
Location:  40.54°N, 124.06°W
Report Text: KFOT 230215Z AUTO 31005KT 3/4SM OVC002 13/13 A3032 RMK AO1
Loading
Personal Weather Stations






























Interactive Weather Map New forecast layout! Learn more

10-Day Weather Forecast

Advertisements
Track Severe Weather on mobile